Time;durP1;ratioP1;P1;durP2;ratioP2;P2;SDS_P1;SDS_P2;PMS_P1;PMS_P2;Temp;Humidity;BMP_temperature;BMP_pressure;BME280_temperature;BME280_humidity;BME280_pressure;Samples;Min_cycle;Max_cycle;Signal;HPM_P1;HPM_P2
2023/06/25 00:02:10;;;;;;;5.28;3.30;;;12.80;99.90;;;;;;5114560;28;20073;-77
2023/06/25 00:04:36;;;;;;;7.20;3.38;;;12.70;99.90;;;;;;5114327;28;20027;-77
2023/06/25 00:07:03;;;;;;;5.80;2.97;;;12.70;99.90;;;;;;5114476;28;20473;-77
2023/06/25 00:09:28;;;;;;;5.15;3.67;;;12.80;99.90;;;;;;5114704;28;20111;-77
2023/06/25 00:11:54;;;;;;;6.97;4.30;;;12.70;99.90;;;;;;5114138;28;20497;-77
2023/06/25 00:14:20;;;;;;;5.55;3.95;;;12.70;99.90;;;;;;5113973;28;20516;-77
2023/06/25 00:16:45;;;;;;;5.25;3.55;;;12.60;99.90;;;;;;5114347;28;20461;-77
2023/06/25 00:19:11;;;;;;;5.05;3.08;;;12.50;99.90;;;;;;5114755;28;20511;-77
2023/06/25 00:21:38;;;;;;;4.72;3.40;;;12.50;99.90;;;;;;5113135;28;20026;-77
2023/06/25 00:24:04;;;;;;;8.23;4.93;;;12.50;99.90;;;;;;5113952;28;20031;-77
2023/06/25 00:26:30;;;;;;;11.65;6.75;;;12.40;99.90;;;;;;5114017;28;20111;-77
2023/06/25 00:28:55;;;;;;;9.13;5.22;;;12.30;99.90;;;;;;5114116;28;20477;-77
2023/06/25 00:31:21;;;;;;;6.97;4.10;;;12.20;99.90;;;;;;5113999;28;20039;-77
2023/06/25 00:33:49;;;;;;;5.82;4.03;;;12.20;99.90;;;;;;5113927;28;20059;-77
2023/06/25 00:36:15;;;;;;;6.40;3.13;;;12.20;99.90;;;;;;5112520;28;20028;-77
2023/06/25 00:38:42;;;;;;;5.07;3.20;;;12.10;99.90;;;;;;5113848;28;20028;-77
2023/06/25 00:41:09;;;;;;;6.68;3.75;;;12.20;99.90;;;;;;5113759;28;20020;-78
2023/06/25 00:43:37;;;;;;;8.65;3.38;;;12.20;99.90;;;;;;5113872;28;20080;-77
2023/06/25 00:46:02;;;;;;;5.32;3.63;;;12.20;99.90;;;;;;5113987;28;20020;-77
2023/06/25 00:48:28;;;;;;;6.65;3.35;;;12.20;99.90;;;;;;5113646;28;20030;-77
2023/06/25 00:51:00;;;;;;;5.82;3.45;;;12.20;99.90;;;;;;5113806;28;20520;-78
2023/06/25 00:53:33;;;;;;;6.57;3.45;;;12.20;99.90;;;;;;5113943;28;20431;-77
2023/06/25 00:55:58;;;;;;;4.93;3.42;;;12.20;99.90;;;;;;5114025;28;20030;-77
2023/06/25 00:58:24;;;;;;;6.18;3.33;;;12.20;99.90;;;;;;5113906;28;20028;-77
2023/06/25 01:00:52;;;;;;;4.85;3.30;;;12.10;99.90;;;;;;5113630;28;20051;-77
2023/06/25 01:03:29;;;;;;;6.35;3.50;;;12.20;99.90;;;;;;5113853;28;20073;-77
2023/06/25 01:06:06;;;;;;;5.70;3.25;;;12.10;99.90;;;;;;5113553;28;20022;-77
2023/06/25 01:08:32;;;;;;;7.32;3.67;;;12.10;99.90;;;;;;5113847;28;20022;-77
2023/06/25 01:10:58;;;;;;;5.13;3.10;;;12.10;99.90;;;;;;5113581;28;20065;-77
2023/06/25 01:13:24;;;;;;;4.28;3.03;;;12.20;99.90;;;;;;5113401;28;20032;-77
2023/06/25 01:15:49;;;;;;;8.45;3.17;;;12.10;99.90;;;;;;5113819;28;20027;-77
2023/06/25 01:18:15;;;;;;;5.47;3.00;;;12.00;99.90;;;;;;5113355;28;20067;-77
2023/06/25 01:20:41;;;;;;;4.68;3.05;;;11.90;99.90;;;;;;5113369;28;20450;-77
2023/06/25 01:23:10;;;;;;;5.82;3.10;;;11.80;99.90;;;;;;5113419;28;20024;-77
2023/06/25 01:25:37;;;;;;;5.72;3.55;;;11.80;99.90;;;;;;5114376;28;20035;-77
2023/06/25 01:28:04;;;;;;;5.88;3.38;;;11.80;99.90;;;;;;5113324;28;20024;-77
2023/06/25 01:30:31;;;;;;;7.15;3.30;;;11.90;99.90;;;;;;5113134;28;20028;-77
2023/06/25 01:32:58;;;;;;;5.63;3.60;;;11.90;99.90;;;;;;5115749;28;20038;-75
2023/06/25 01:35:25;;;;;;;5.95;3.63;;;11.90;99.90;;;;;;5117410;28;20023;-75
2023/06/25 01:37:51;;;;;;;6.78;3.72;;;11.90;99.90;;;;;;5117617;28;20031;-75
2023/06/25 01:40:16;;;;;;;5.15;3.17;;;11.90;99.90;;;;;;5117065;28;20047;-75
2023/06/25 01:42:43;;;;;;;5.63;3.85;;;11.90;99.90;;;;;;5117256;28;20497;-76
2023/06/25 01:45:11;;;;;;;4.68;3.03;;;11.90;99.90;;;;;;5117207;28;20046;-77
2023/06/25 01:47:37;;;;;;;6.45;3.40;;;11.90;99.90;;;;;;5116929;28;20023;-77
2023/06/25 01:50:04;;;;;;;5.80;3.72;;;11.90;99.90;;;;;;5116891;28;20102;-77
2023/06/25 01:52:31;;;;;;;5.32;3.45;;;11.90;99.90;;;;;;5117385;28;20110;-77
2023/06/25 01:54:57;;;;;;;7.68;3.97;;;11.90;99.90;;;;;;5115448;28;20020;-77
2023/06/25 01:57:22;;;;;;;4.90;3.30;;;11.80;99.90;;;;;;5116933;28;20073;-77
2023/06/25 01:59:48;;;;;;;4.57;3.20;;;11.80;99.90;;;;;;5116698;28;20024;-77
2023/06/25 02:02:14;;;;;;;5.32;3.38;;;11.80;99.90;;;;;;5116647;28;20026;-77
2023/06/25 02:04:40;;;;;;;4.90;3.25;;;11.70;99.90;;;;;;5115332;28;20023;-77
2023/06/25 02:07:06;;;;;;;7.00;4.03;;;11.70;99.90;;;;;;5116481;28;20039;-77
2023/06/25 02:09:32;;;;;;;6.28;3.60;;;11.70;99.90;;;;;;5116472;28;20031;-77
2023/06/25 02:11:58;;;;;;;5.88;3.63;;;11.70;99.90;;;;;;5117016;28;20412;-77
2023/06/25 02:14:24;;;;;;;5.18;3.35;;;11.60;99.90;;;;;;5116217;28;20040;-77
2023/06/25 02:16:49;;;;;;;5.53;3.28;;;11.60;99.90;;;;;;5116438;28;20427;-77
2023/06/25 02:19:15;;;;;;;5.55;3.38;;;11.60;99.90;;;;;;5116610;28;20038;-77
2023/06/25 02:21:41;;;;;;;5.65;3.53;;;11.60;99.90;;;;;;5116229;28;20103;-77
2023/06/25 02:24:06;;;;;;;4.40;3.13;;;11.60;99.90;;;;;;5116053;28;20020;-77
2023/06/25 02:26:32;;;;;;;6.85;3.80;;;11.50;99.90;;;;;;5116203;28;20023;-77
2023/06/25 02:28:58;;;;;;;5.85;3.80;;;11.50;99.90;;;;;;5114880;28;20166;-77
2023/06/25 02:31:23;;;;;;;5.60;3.60;;;11.50;99.90;;;;;;5114896;28;20439;-77
2023/06/25 02:33:49;;;;;;;6.35;3.80;;;11.50;99.90;;;;;;5116285;28;20045;-77
2023/06/25 02:36:15;;;;;;;5.85;3.97;;;11.50;99.90;;;;;;5116550;28;20636;-77
2023/06/25 02:38:41;;;;;;;6.18;3.60;;;11.50;99.90;;;;;;5116205;28;20466;-77
2023/06/25 02:41:06;;;;;;;8.00;3.80;;;11.50;99.90;;;;;;5114717;28;20047;-77
2023/06/25 02:43:32;;;;;;;6.07;3.30;;;11.40;99.90;;;;;;5114829;28;20486;-77
2023/06/25 02:45:58;;;;;;;9.27;4.10;;;11.40;99.90;;;;;;5115685;28;20031;-77
2023/06/25 02:48:23;;;;;;;5.18;3.30;;;11.40;99.90;;;;;;5115684;28;20106;-77
2023/06/25 02:50:49;;;;;;;5.53;3.55;;;11.30;99.90;;;;;;5115681;28;20481;-77
2023/06/25 02:53:15;;;;;;;6.47;3.92;;;11.30;99.90;;;;;;5115695;28;20523;-77
2023/06/25 02:55:41;;;;;;;7.78;4.72;;;11.20;99.90;;;;;;5115586;28;20064;-77
2023/06/25 02:58:06;;;;;;;9.10;6.00;;;11.10;99.90;;;;;;5115566;28;20371;-77
2023/06/25 03:00:32;;;;;;;8.38;5.00;;;11.00;99.90;;;;;;5115476;28;20081;-77
2023/06/25 03:02:58;;;;;;;7.13;4.90;;;11.00;99.90;;;;;;5114171;28;20031;-77
2023/06/25 03:05:24;;;;;;;6.47;4.57;;;11.00;99.90;;;;;;5116218;28;20485;-77
2023/06/25 03:07:51;;;;;;;5.95;4.22;;;11.00;99.90;;;;;;5115210;28;20134;-77
2023/06/25 03:10:17;;;;;;;7.82;4.00;;;11.00;99.90;;;;;;5114061;28;20131;-77
2023/06/25 03:12:43;;;;;;;6.00;4.25;;;11.00;99.90;;;;;;5115925;28;20035;-75
2023/06/25 03:15:09;;;;;;;5.90;3.70;;;10.90;99.90;;;;;;5115086;28;20031;-74
2023/06/25 03:17:34;;;;;;;7.45;4.38;;;10.80;99.90;;;;;;5115698;28;20053;-75
2023/06/25 03:20:00;;;;;;;6.80;4.07;;;10.80;99.90;;;;;;5115418;28;20588;-74
2023/06/25 03:22:26;;;;;;;6.85;4.18;;;10.80;99.90;;;;;;5113843;28;20035;-74
2023/06/25 03:24:51;;;;;;;7.93;4.07;;;10.80;99.90;;;;;;5114977;28;20063;-74
2023/06/25 03:27:17;;;;;;;6.30;4.05;;;10.80;99.90;;;;;;5114950;28;20031;-74
2023/06/25 03:29:43;;;;;;;5.47;3.45;;;10.80;99.90;;;;;;5114922;28;20030;-74
2023/06/25 03:32:08;;;;;;;7.55;3.85;;;10.80;99.90;;;;;;5113696;28;20031;-75
2023/06/25 03:34:34;;;;;;;6.10;3.90;;;10.80;99.90;;;;;;5113672;28;20035;-74
2023/06/25 03:36:59;;;;;;;6.20;3.92;;;10.80;99.90;;;;;;5113612;28;20062;-74
2023/06/25 03:39:25;;;;;;;6.07;3.90;;;10.80;99.90;;;;;;5113643;28;20035;-74
2023/06/25 03:41:51;;;;;;;5.65;3.83;;;10.80;99.90;;;;;;5114800;28;20070;-74
2023/06/25 03:44:16;;;;;;;7.30;4.05;;;10.80;99.90;;;;;;5114889;28;20038;-73
2023/06/25 03:46:42;;;;;;;7.07;4.40;;;10.80;99.90;;;;;;5114509;28;20039;-74
2023/06/25 03:49:08;;;;;;;6.43;4.60;;;10.80;99.90;;;;;;5114602;28;20031;-74
2023/06/25 03:51:33;;;;;;;6.13;4.43;;;10.80;99.90;;;;;;5114598;28;20024;-74
2023/06/25 03:53:59;;;;;;;7.05;4.65;;;10.80;99.90;;;;;;5114505;28;20016;-74
2023/06/25 03:56:24;;;;;;;7.03;4.65;;;10.80;99.90;;;;;;5114631;28;20047;-74
2023/06/25 03:58:50;;;;;;;6.57;4.43;;;10.80;99.90;;;;;;5114473;28;20429;-74
2023/06/25 04:01:16;;;;;;;8.40;4.40;;;10.80;99.90;;;;;;5114981;28;20469;-74
2023/06/25 04:03:42;;;;;;;8.10;4.43;;;10.80;99.90;;;;;;5112953;28;20039;-74
2023/06/25 04:06:07;;;;;;;8.15;4.35;;;10.80;99.90;;;;;;5114225;28;20024;-74
2023/06/25 04:08:33;;;;;;;8.00;4.60;;;10.80;99.90;;;;;;5114648;28;20074;-74
2023/06/25 04:10:59;;;;;;;7.75;5.38;;;10.80;99.90;;;;;;5114161;28;20046;-74
2023/06/25 04:13:24;;;;;;;6.72;4.30;;;10.80;99.90;;;;;;5114226;28;20063;-74
2023/06/25 04:15:50;;;;;;;9.48;4.00;;;10.80;99.90;;;;;;5114277;28;20020;-74
2023/06/25 04:18:16;;;;;;;5.30;3.45;;;10.80;99.90;;;;;;5112896;28;20500;-74
2023/06/25 04:20:41;;;;;;;5.07;3.35;;;10.80;99.90;;;;;;5114088;28;20035;-74
2023/06/25 04:23:07;;;;;;;4.53;3.20;;;10.70;99.90;;;;;;5114015;28;20032;-74
2023/06/25 04:25:33;;;;;;;4.65;3.30;;;10.70;99.90;;;;;;5113962;28;20028;-74
2023/06/25 04:27:58;;;;;;;6.00;3.78;;;10.80;99.90;;;;;;5113903;28;20473;-75
2023/06/25 04:30:24;;;;;;;6.28;4.07;;;10.80;99.90;;;;;;5114248;28;20023;-74
2023/06/25 04:32:50;;;;;;;5.65;3.67;;;10.70;99.90;;;;;;5113784;28;20086;-73
2023/06/25 04:35:18;;;;;;;7.45;4.55;;;10.80;99.90;;;;;;5113787;28;20059;-73
2023/06/25 04:37:44;;;;;;;5.55;3.90;;;10.80;99.90;;;;;;5113687;28;20032;-73
2023/06/25 04:40:10;;;;;;;8.40;4.22;;;10.90;99.90;;;;;;5114128;28;20027;-74
2023/06/25 04:42:36;;;;;;;6.45;4.18;;;10.90;99.90;;;;;;5114013;28;20115;-73
2023/06/25 04:45:01;;;;;;;7.35;4.25;;;10.90;99.90;;;;;;5113758;28;20062;-74
2023/06/25 04:47:27;;;;;;;7.07;4.55;;;10.90;99.90;;;;;;5113702;28;20031;-74
2023/06/25 04:49:53;;;;;;;8.45;4.45;;;11.00;99.90;;;;;;5113999;28;20420;-74
2023/06/25 04:52:19;;;;;;;7.15;4.57;;;11.00;99.90;;;;;;5113685;28;20020;-74
2023/06/25 04:54:47;;;;;;;6.47;4.15;;;11.00;99.90;;;;;;5113575;28;20054;-74
2023/06/25 04:57:13;;;;;;;6.72;4.25;;;11.00;99.90;;;;;;5113741;28;20035;-74
2023/06/25 04:59:38;;;;;;;6.32;4.07;;;11.00;99.90;;;;;;5113613;28;20389;-74
2023/06/25 05:02:05;;;;;;;8.63;4.57;;;11.10;99.90;;;;;;5113838;28;20038;-74
2023/06/25 05:04:31;;;;;;;6.68;4.22;;;11.10;99.90;;;;;;5113588;28;20024;-74
2023/06/25 05:06:56;;;;;;;8.48;4.88;;;11.10;99.90;;;;;;5114461;28;20050;-74
2023/06/25 05:09:22;;;;;;;9.15;5.20;;;11.20;99.90;;;;;;5117768;28;20530;-74
2023/06/25 05:11:48;;;;;;;10.38;5.10;;;11.20;99.90;;;;;;5116463;28;20031;-74
2023/06/25 05:14:13;;;;;;;6.40;4.65;;;11.30;99.90;;;;;;5116112;28;20080;-74
2023/06/25 05:16:39;;;;;;;7.35;5.00;;;11.30;99.90;;;;;;5117675;28;20034;-74
2023/06/25 05:19:05;;;;;;;8.30;5.55;;;11.40;99.90;;;;;;5116268;28;20042;-74
2023/06/25 05:21:30;;;;;;;9.40;5.20;;;11.40;99.90;;;;;;5118049;28;20055;-74
2023/06/25 05:23:58;;;;;;;8.88;5.35;;;11.40;99.90;;;;;;5117360;28;20027;-74
2023/06/25 05:26:24;;;;;;;9.40;5.80;;;11.50;99.90;;;;;;5116003;28;20024;-75
2023/06/25 05:28:50;;;;;;;9.20;5.43;;;11.50;99.90;;;;;;5117425;28;20031;-76
2023/06/25 05:31:15;;;;;;;7.75;5.07;;;11.60;99.90;;;;;;5117642;28;20066;-77
2023/06/25 05:33:41;;;;;;;7.88;5.05;;;11.70;99.90;;;;;;5117277;28;20127;-77
2023/06/25 05:36:07;;;;;;;8.30;5.80;;;11.70;99.90;;;;;;5117305;28;20380;-76
2023/06/25 05:38:32;;;;;;;9.70;6.32;;;11.80;99.90;;;;;;5116277;28;20462;-76
2023/06/25 05:40:58;;;;;;;10.38;6.30;;;11.80;99.90;;;;;;5116247;28;20035;-74
2023/06/25 05:43:23;;;;;;;10.82;6.93;;;11.90;99.90;;;;;;5115601;28;20016;-73
2023/06/25 05:45:49;;;;;;;10.02;6.70;;;12.00;99.90;;;;;;5115314;28;20019;-74
2023/06/25 05:48:15;;;;;;;10.40;6.55;;;12.00;99.90;;;;;;5115590;28;20059;-74
2023/06/25 05:50:40;;;;;;;11.88;7.32;;;12.10;99.90;;;;;;5116399;28;20024;-74
2023/06/25 05:53:07;;;;;;;12.30;7.85;;;12.20;99.90;;;;;;5116218;28;20531;-74
2023/06/25 05:55:32;;;;;;;11.25;7.18;;;12.30;99.90;;;;;;5098115;28;20028;-74
2023/06/25 05:57:58;;;;;;;11.30;7.28;;;12.40;99.90;;;;;;5116183;28;20028;-74
2023/06/25 06:00:24;;;;;;;13.05;8.75;;;12.50;99.90;;;;;;5116087;28;20388;-74
2023/06/25 06:02:50;;;;;;;12.30;7.80;;;12.60;99.90;;;;;;5114671;28;20027;-74
2023/06/25 06:05:15;;;;;;;13.52;8.30;;;12.70;99.90;;;;;;5115130;28;20111;-73
2023/06/25 06:07:41;;;;;;;11.75;8.05;;;12.80;99.90;;;;;;5115830;28;20057;-74
2023/06/25 06:10:07;;;;;;;12.70;8.18;;;12.90;99.90;;;;;;5115903;28;20088;-73
2023/06/25 06:12:32;;;;;;;12.27;8.35;;;13.00;99.90;;;;;;5115803;28;20430;-75
2023/06/25 06:14:58;;;;;;;12.75;7.47;;;13.00;99.90;;;;;;5115865;28;20038;-76
2023/06/25 06:17:24;;;;;;;13.43;8.48;;;13.10;99.90;;;;;;5115566;28;20050;-75
2023/06/25 06:19:50;;;;;;;15.55;9.02;;;13.20;99.90;;;;;;5114300;28;20031;-76
2023/06/25 06:22:16;;;;;;;13.88;9.45;;;13.30;99.90;;;;;;5115137;28;20038;-76
2023/06/25 06:24:42;;;;;;;16.58;12.43;;;13.30;99.90;;;;;;5114986;28;20030;-76
2023/06/25 06:27:08;;;;;;;17.25;11.80;;;13.40;99.90;;;;;;5115605;28;20028;-76
2023/06/25 06:29:34;;;;;;;15.15;11.35;;;13.40;99.90;;;;;;5115505;28;20024;-76
2023/06/25 06:31:59;;;;;;;15.48;10.77;;;13.50;99.90;;;;;;5114334;28;20072;-76
2023/06/25 06:34:25;;;;;;;17.67;11.07;;;13.60;99.90;;;;;;5113838;28;20031;-76
2023/06/25 06:36:51;;;;;;;18.40;10.90;;;13.70;99.90;;;;;;5113929;28;20032;-76
2023/06/25 06:39:17;;;;;;;14.60;10.30;;;13.80;99.90;;;;;;5113828;28;20031;-76
2023/06/25 06:41:43;;;;;;;16.23;10.88;;;13.90;99.90;;;;;;5114742;28;20031;-76
2023/06/25 06:44:18;;;;;;;18.52;12.02;;;14.00;99.90;;;;;;5115791;28;20102;-76
2023/06/25 06:46:45;;;;;;;18.70;13.15;;;14.20;99.90;;;;;;5115744;28;20393;-77
2023/06/25 06:49:11;;;;;;;16.20;11.68;;;14.30;99.90;;;;;;5116154;28;20024;-77
2023/06/25 06:51:37;;;;;;;13.65;10.48;;;14.40;99.90;;;;;;5115738;28;20091;-76
2023/06/25 06:54:06;;;;;;;15.18;8.80;;;14.50;99.90;;;;;;5114751;28;20024;-76
2023/06/25 06:56:32;;;;;;;10.63;7.60;;;14.70;99.90;;;;;;5116132;28;20016;-76
2023/06/25 06:58:58;;;;;;;9.18;6.57;;;14.90;99.90;;;;;;5114335;28;20503;-76
2023/06/25 07:01:25;;;;;;;9.57;6.57;;;15.00;99.90;;;;;;5115508;28;20110;-76
2023/06/25 07:03:50;;;;;;;15.20;7.93;;;15.20;99.90;;;;;;5115625;28;20036;-76
2023/06/25 07:06:16;;;;;;;9.55;5.90;;;15.30;99.90;;;;;;5115476;28;20035;-76
2023/06/25 07:08:42;;;;;;;35.85;8.02;;;15.50;99.90;;;;;;5115531;28;20046;-76
2023/06/25 07:11:07;;;;;;;12.20;6.53;;;15.60;99.90;;;;;;5115531;28;20023;-76
2023/06/25 07:13:33;;;;;;;10.50;6.28;;;15.70;99.90;;;;;;5115267;28;20114;-76
2023/06/25 07:15:59;;;;;;;8.93;5.60;;;15.90;99.90;;;;;;5114071;28;20020;-76
2023/06/25 07:18:24;;;;;;;6.85;5.22;;;16.00;99.90;;;;;;5115373;28;20035;-76
2023/06/25 07:20:50;;;;;;;8.40;5.18;;;16.00;99.90;;;;;;5115227;28;20493;-76
2023/06/25 07:23:16;;;;;;;10.73;4.97;;;16.10;99.90;;;;;;5115185;28;20043;-73
2023/06/25 07:25:42;;;;;;;8.90;5.53;;;16.30;99.90;;;;;;5115268;28;20031;-74
2023/06/25 07:28:11;;;;;;;9.57;5.95;;;16.40;99.90;;;;;;5115460;28;20114;-75
2023/06/25 07:30:38;;;;;;;7.88;4.90;;;16.60;99.90;;;;;;5115411;28;20034;-76
2023/06/25 07:33:04;;;;;;;6.03;4.65;;;16.80;99.90;;;;;;5115518;28;20110;-76
2023/06/25 07:35:30;;;;;;;8.25;5.05;;;16.90;99.90;;;;;;5114800;28;20054;-76
2023/06/25 07:37:55;;;;;;;7.45;4.65;;;17.00;99.90;;;;;;5115069;28;20031;-76
2023/06/25 07:40:21;;;;;;;9.02;4.90;;;17.20;99.90;;;;;;5114731;28;20031;-76
2023/06/25 07:42:46;;;;;;;6.75;4.75;;;17.30;99.90;;;;;;5114336;28;20043;-76
2023/06/25 07:45:12;;;;;;;7.18;4.20;;;17.40;99.90;;;;;;5113862;28;20028;-74
2023/06/25 07:47:38;;;;;;;6.18;4.18;;;17.50;99.90;;;;;;5114653;28;20031;-73
2023/06/25 07:50:04;;;;;;;5.93;4.28;;;17.70;99.90;;;;;;5113988;28;20102;-74
2023/06/25 07:52:30;;;;;;;6.75;4.18;;;17.90;99.90;;;;;;5113523;28;20031;-73
2023/06/25 07:54:56;;;;;;;6.93;3.95;;;18.00;99.90;;;;;;5112552;28;20034;-74
2023/06/25 07:57:22;;;;;;;8.57;4.03;;;18.30;99.90;;;;;;5114330;28;20481;-74
2023/06/25 07:59:47;;;;;;;5.85;4.05;;;18.40;99.90;;;;;;5114235;28;20089;-74
2023/06/25 08:02:13;;;;;;;6.95;4.15;;;18.60;99.90;;;;;;5114133;28;20036;-74
2023/06/25 08:04:39;;;;;;;5.63;3.97;;;18.70;99.90;;;;;;5114319;28;20027;-72
2023/06/25 08:07:05;;;;;;;6.47;3.95;;;18.80;99.90;;;;;;5114634;28;20111;-74
2023/06/25 08:09:31;;;;;;;5.45;3.95;;;19.00;99.90;;;;;;5114935;28;20023;-74
2023/06/25 08:11:57;;;;;;;5.55;4.03;;;19.20;99.90;;;;;;5114704;28;20106;-74
2023/06/25 08:14:23;;;;;;;6.45;4.40;;;19.40;99.90;;;;;;5114345;28;20434;-74
2023/06/25 08:16:49;;;;;;;6.05;3.80;;;19.50;99.90;;;;;;5114580;28;20534;-75
2023/06/25 08:19:16;;;;;;;8.00;4.43;;;19.70;99.90;;;;;;5116407;27;20288;-74
2023/06/25 08:21:42;;;;;;;6.97;3.85;;;19.90;99.90;;;;;;5134916;27;20389;-74
2023/06/25 08:24:07;;;;;;;7.18;4.15;;;20.10;99.90;;;;;;5135433;27;20052;-74
2023/06/25 08:26:33;;;;;;;5.93;4.05;;;20.20;99.90;;;;;;5115891;27;20473;-74
2023/06/25 08:28:59;;;;;;;5.55;3.90;;;20.40;99.90;;;;;;5134318;27;20457;-73
2023/06/25 08:31:24;;;;;;;7.03;3.83;;;20.50;99.90;;;;;;5135172;27;20103;-74
2023/06/25 08:33:50;;;;;;;5.30;3.70;;;20.60;98.20;;;;;;5134365;27;20084;-74
2023/06/25 08:36:15;;;;;;;6.00;4.13;;;20.80;99.20;;;;;;5134740;27;20088;-73
2023/06/25 08:38:41;;;;;;;4.72;3.67;;;20.90;96.90;;;;;;5134485;27;20027;-74
2023/06/25 08:41:07;;;;;;;6.63;4.10;;;21.00;96.00;;;;;;5134284;27;20028;-74
2023/06/25 08:43:33;;;;;;;5.53;4.30;;;21.10;95.90;;;;;;5134539;27;20027;-74
2023/06/25 08:45:58;;;;;;;5.03;3.60;;;21.30;94.50;;;;;;5134563;28;20019;-74
2023/06/25 08:48:28;;;;;;;7.38;4.05;;;21.40;94.20;;;;;;5134419;28;20407;-74
2023/06/25 08:50:56;;;;;;;5.55;4.00;;;21.40;93.00;;;;;;5134614;28;20015;-73
2023/06/25 08:53:25;;;;;;;6.13;3.88;;;21.50;91.90;;;;;;5134264;28;20030;-74
2023/06/25 08:55:53;;;;;;;4.72;3.63;;;21.70;90.60;;;;;;5134219;28;20427;-74
2023/06/25 08:58:21;;;;;;;6.38;4.35;;;21.70;90.30;;;;;;5135705;28;20024;-75
2023/06/25 09:00:47;;;;;;;5.45;3.88;;;21.80;90.40;;;;;;5136272;28;20031;-74
2023/06/25 09:03:12;;;;;;;7.72;4.38;;;21.90;89.20;;;;;;5135962;28;20073;-74
2023/06/25 09:05:38;;;;;;;6.38;4.38;;;22.00;90.40;;;;;;5135465;28;20023;-74
2023/06/25 09:08:05;;;;;;;7.32;4.28;;;22.10;91.40;;;;;;5116768;28;20031;-74
2023/06/25 09:10:31;;;;;;;7.60;4.20;;;22.30;90.30;;;;;;5135008;28;20019;-74
2023/06/25 09:13:01;;;;;;;9.57;4.68;;;22.40;87.60;;;;;;5134320;28;20026;-74
2023/06/25 09:15:27;;;;;;;7.20;4.50;;;22.50;91.10;;;;;;5134813;28;20028;-74
2023/06/25 09:17:56;;;;;;;5.78;4.32;;;22.70;89.60;;;;;;5134850;28;20038;-73
2023/06/25 09:20:22;;;;;;;6.03;4.50;;;22.80;86.00;;;;;;5134184;28;20034;-74
2023/06/25 09:22:52;;;;;;;8.43;4.63;;;22.80;85.40;;;;;;5134117;28;20031;-75
2023/06/25 09:25:26;;;;;;;5.63;4.00;;;22.90;84.00;;;;;;5134060;28;20023;-73
2023/06/25 09:27:52;;;;;;;6.20;4.18;;;23.10;86.20;;;;;;5134162;28;20464;-73
2023/06/25 09:30:22;;;;;;;6.80;4.30;;;23.20;82.40;;;;;;5134024;28;20019;-74
2023/06/25 09:32:51;;;;;;;5.93;4.15;;;23.30;80.00;;;;;;5134224;28;20024;-74
2023/06/25 09:35:20;;;;;;;5.95;4.13;;;23.30;77.10;;;;;;5133942;28;20487;-74
2023/06/25 09:37:46;;;;;;;6.55;4.25;;;23.40;80.00;;;;;;5134001;28;20080;-74
2023/06/25 09:40:12;;;;;;;7.63;4.45;;;23.50;79.00;;;;;;5133881;28;20031;-74
2023/06/25 09:42:41;;;;;;;7.68;4.63;;;23.60;79.60;;;;;;5133906;28;20035;-73
2023/06/25 09:45:10;;;;;;;5.43;4.07;;;23.70;79.70;;;;;;5133761;28;20402;-74
2023/06/25 09:47:46;;;;;;;5.53;4.20;;;23.80;79.50;;;;;;5115842;28;20038;-74
2023/06/25 09:50:18;;;;;;;6.30;4.40;;;24.00;79.80;;;;;;5134152;28;20015;-74
2023/06/25 09:52:59;;;;;;;5.88;4.25;;;24.20;76.80;;;;;;5134274;27;20027;-73
2023/06/25 09:55:27;;;;;;;6.05;4.28;;;24.30;74.70;;;;;;5119077;27;20023;-74
2023/06/25 09:57:54;;;;;;;5.68;4.13;;;24.40;77.80;;;;;;5137757;27;20027;-73
2023/06/25 10:00:21;;;;;;;6.95;4.63;;;24.40;74.90;;;;;;5137443;27;20028;-74
2023/06/25 10:02:47;;;;;;;6.35;4.22;;;24.50;73.30;;;;;;5137414;27;20027;-73
2023/06/25 10:05:13;;;;;;;5.63;4.10;;;24.60;72.30;;;;;;5137370;27;20388;-74
2023/06/25 10:07:40;;;;;;;6.00;4.45;;;24.60;71.40;;;;;;5118769;27;20033;-73
2023/06/25 10:10:06;;;;;;;6.00;4.55;;;24.70;73.40;;;;;;5137139;27;20019;-73
2023/06/25 10:12:35;;;;;;;9.23;4.60;;;24.80;71.70;;;;;;5137155;27;20396;-73
2023/06/25 10:15:03;;;;;;;5.70;4.13;;;24.80;69.50;;;;;;5136909;27;20072;-73
2023/06/25 10:17:28;;;;;;;5.18;4.00;;;24.90;72.00;;;;;;5137060;27;20027;-73
2023/06/25 10:19:59;;;;;;;6.57;4.97;;;25.00;71.30;;;;;;5137266;27;20053;-73
2023/06/25 10:22:26;;;;;;;5.88;5.03;;;25.10;70.80;;;;;;5137178;27;20476;-73
2023/06/25 10:24:53;;;;;;;5.82;4.38;;;25.20;68.80;;;;;;5136933;27;20419;-73
2023/06/25 10:27:32;;;;;;;7.72;4.82;;;25.20;71.50;;;;;;5136967;27;20031;-73
2023/06/25 10:29:58;;;;;;;6.20;4.93;;;25.40;71.10;;;;;;5136770;27;20385;-73
2023/06/25 10:32:25;;;;;;;6.07;4.22;;;25.50;69.80;;;;;;5137091;27;20170;-73
2023/06/25 10:35:03;;;;;;;6.03;4.80;;;25.60;69.50;;;;;;5136710;27;20042;-74
2023/06/25 10:37:32;;;;;;;;;;;25.70;67.30;;;;;;5137220;27;20019;-74
2023/06/25 10:40:02;;;;;;;;;;;25.80;69.40;;;;;;5137070;27;19903;-74
2023/06/25 10:42:29;;;;;;;;;;;25.90;68.50;;;;;;5118630;27;19959;-74
2023/06/25 10:44:54;;;;;;;;;;;26.00;64.70;;;;;;5137059;27;19903;-74
2023/06/25 10:47:20;;;;;;;;;;;26.10;63.10;;;;;;5136748;27;19919;-73
2023/06/25 10:49:45;;;;;;;;;;;26.20;64.20;;;;;;5136993;27;19918;-74
2023/06/25 10:52:11;;;;;;;;;;;26.30;65.20;;;;;;5136755;27;19916;-73
2023/06/25 10:54:36;;;;;;;;;;;26.40;65.70;;;;;;5136933;27;19904;-73
2023/06/25 10:57:08;;;;;;;;;;;26.50;62.80;;;;;;5137147;27;19907;-73
2023/06/25 10:59:34;;;;;;;;;;;26.60;60.80;;;;;;5136496;27;19968;-74
2023/06/25 11:02:11;;;;;;;;;;;26.70;59.60;;;;;;5136287;27;20368;-73
2023/06/25 11:04:37;;;;;;;;;;;26.80;61.90;;;;;;5135549;27;20265;-73
2023/06/25 11:07:03;;;;;;;;;;;26.90;57.40;;;;;;5136132;27;19960;-73
2023/06/25 11:09:28;;;;;;;;;;;27.00;55.80;;;;;;5117711;27;19915;-74
2023/06/25 11:11:54;;;;;;;;;;;27.10;56.10;;;;;;5136646;27;19911;-73
2023/06/25 11:14:20;;;;;;;;;;;27.30;53.30;;;;;;5117661;27;19916;-74
2023/06/25 11:16:46;;;;;;;;;;;27.40;51.50;;;;;;5136373;27;19907;-74
2023/06/25 11:19:11;;;;;;;;;;;27.40;52.30;;;;;;5136222;27;19915;-73
2023/06/25 11:21:37;;;;;;;;;;;27.40;53.60;;;;;;5136210;27;19907;-73
2023/06/25 11:24:09;;;;;;;;;;;27.50;53.90;;;;;;5136458;27;19939;-73
2023/06/25 11:26:41;;;;;;;;;;;27.50;52.00;;;;;;5117507;27;19915;-73
2023/06/25 11:29:07;;;;;;;;;;;27.60;52.30;;;;;;5135992;27;19907;-73
2023/06/25 11:31:43;;;;;;;;;;;27.60;51.30;;;;;;5136213;27;19903;-73
2023/06/25 11:34:21;;;;;;;;;;;27.70;51.90;;;;;;5135805;27;19907;-73
2023/06/25 11:36:47;;;;;;;;;;;27.70;51.20;;;;;;5135741;27;19960;-73
2023/06/25 11:39:13;;;;;;;;;;;27.70;50.40;;;;;;5135656;27;19907;-73
2023/06/25 11:41:38;;;;;;;;;;;27.80;49.70;;;;;;5136058;27;19907;-73
2023/06/25 11:44:14;;;;;;;;;;;27.80;49.90;;;;;;5135609;27;19903;-73
2023/06/25 11:46:41;;;;;;;;;;;27.80;50.90;;;;;;5135349;27;19907;-73
2023/06/25 11:49:08;;;;;;;;;;;27.90;49.70;;;;;;5136547;27;19995;-73
2023/06/25 11:51:34;;;;;;;;;;;27.90;50.40;;;;;;5135577;27;19914;-73
2023/06/25 11:53:59;;;;;;;;;;;28.00;50.20;;;;;;5135618;27;19911;-73
2023/06/25 11:56:25;;;;;;;;;;;28.00;50.00;;;;;;5135302;27;19939;-74
2023/06/25 11:58:50;;;;;;;;;;;28.10;48.30;;;;;;5135512;27;20374;-74
2023/06/25 12:01:16;;;;;;;;;;;28.20;51.60;;;;;;5135430;27;19919;-74
2023/06/25 12:03:41;;;;;;;;;;;28.20;52.00;;;;;;5117172;27;19908;-73
2023/06/25 12:06:07;;;;;;;;;;;28.40;51.50;;;;;;5135265;27;20002;-73
2023/06/25 12:08:33;;;;;;;;;;;28.50;48.40;;;;;;5135500;27;19907;-74
2023/06/25 12:10:58;;;;;;;;;;;28.50;47.60;;;;;;5135157;27;20337;-73
2023/06/25 12:13:24;;;;;;;;;;;28.60;46.40;;;;;;5135060;27;19959;-72
2023/06/25 12:15:49;;;;;;;;;;;28.70;47.40;;;;;;5135080;27;20376;-72
2023/06/25 12:18:15;;;;;;;;;;;28.70;46.00;;;;;;5135116;27;19907;-73
2023/06/25 12:20:40;;;;;;;;;;;28.80;46.70;;;;;;5135236;27;20000;-73
2023/06/25 12:23:06;;;;;;;;;;;28.80;47.40;;;;;;5134985;27;19961;-74
2023/06/25 12:25:31;;;;;;;;;;;28.90;48.10;;;;;;5133090;27;19993;-75
2023/06/25 12:27:57;;;;;;;;;;;29.00;47.70;;;;;;5133073;27;20394;-74
2023/06/25 12:30:22;;;;;;;;;;;29.20;46.50;;;;;;5133146;27;19994;-74
2023/06/25 12:32:48;;;;;;;;;;;29.30;45.60;;;;;;5133927;27;19907;-74
2023/06/25 12:35:13;;;;;;;;;;;29.30;44.40;;;;;;5133985;27;20361;-74
2023/06/25 12:37:39;;;;;;;;;;;29.40;42.70;;;;;;5134161;27;19950;-74
2023/06/25 12:40:09;;;;;;;;;;;29.40;46.30;;;;;;5134511;27;19956;-74
2023/06/25 12:42:34;;;;;;;;;;;29.50;45.50;;;;;;5134791;27;19930;-74
2023/06/25 12:45:00;;;;;;;;;;;29.60;45.20;;;;;;5134899;27;20420;-74
2023/06/25 12:47:25;;;;;;;;;;;29.80;46.50;;;;;;5134716;28;20257;-74
2023/06/25 12:49:51;;;;;;;;;;;30.00;48.00;;;;;;5135058;28;19945;-73
2023/06/25 12:52:16;;;;;;;;;;;30.20;50.30;;;;;;5134691;28;19942;-73
2023/06/25 12:54:43;;;;;;;;;;;30.00;47.00;;;;;;5134607;28;19935;-74
2023/06/25 12:57:08;;;;;;;;;;;29.70;49.20;;;;;;5135012;28;19940;-73